createdAt,value
2023-05-09T00:02:08.445Z,3.38
2023-05-09T00:05:10.149Z,3.15
2023-05-09T00:08:11.834Z,3.28
2023-05-09T00:11:13.754Z,3.33
2023-05-09T00:14:16.924Z,3.13
2023-05-09T00:17:18.589Z,2.85
2023-05-09T00:20:20.429Z,2.92
2023-05-09T00:23:22.042Z,2.58
2023-05-09T00:26:23.761Z,2.90
2023-05-09T00:29:26.757Z,2.92
2023-05-09T00:32:28.819Z,2.85
2023-05-09T00:35:30.612Z,3.08
2023-05-09T00:38:32.299Z,2.40
2023-05-09T00:41:34.209Z,2.90
2023-05-09T00:44:37.342Z,3.20
2023-05-09T00:47:39.485Z,3.20
2023-05-09T00:50:41.215Z,2.78
2023-05-09T00:53:42.871Z,3.15
2023-05-09T00:56:45.448Z,2.95
2023-05-09T00:59:49.198Z,3.33
2023-05-09T01:05:57.913Z,2.90
2023-05-09T01:09:07.122Z,3.03
2023-05-09T01:12:16.456Z,3.22
2023-05-09T01:15:28.134Z,3.08
2023-05-09T01:18:36.440Z,3.58
2023-05-09T01:21:43.923Z,2.88
2023-05-09T01:25:20.273Z,3.08
2023-05-09T01:28:36.637Z,3.10
2023-05-09T01:31:42.719Z,3.13
2023-05-09T01:34:45.570Z,2.78
2023-05-09T01:37:49.909Z,3.08
2023-05-09T01:40:54.432Z,3.22
2023-05-09T01:43:59.017Z,4.03
2023-05-09T01:47:03.735Z,2.97
2023-05-09T01:50:06.683Z,2.90
2023-05-09T01:53:10.521Z,2.80
2023-05-09T01:56:13.089Z,3.00
2023-05-09T01:59:15.946Z,3.50
2023-05-09T02:02:19.619Z,3.65
2023-05-09T02:08:27.717Z,3.25
2023-05-09T02:11:29.346Z,3.50
2023-05-09T02:14:31.114Z,3.53
2023-05-09T02:17:34.146Z,3.63
2023-05-09T02:20:36.042Z,3.03
2023-05-09T02:23:37.679Z,3.67
2023-05-09T02:26:40.786Z,3.22
2023-05-09T02:29:45.952Z,3.88
2023-05-09T02:32:52.109Z,3.40
2023-05-09T02:35:55.245Z,3.00
2023-05-09T02:38:57.248Z,3.30
2023-05-09T02:42:05.705Z,3.95
2023-05-09T02:45:08.332Z,4.75
2023-05-09T02:48:11.356Z,4.20
2023-05-09T02:51:13.320Z,3.72
2023-05-09T02:54:14.949Z,3.60
2023-05-09T02:57:16.541Z,3.60
2023-05-09T03:00:19.111Z,3.45
2023-05-09T03:03:22.347Z,3.67
2023-05-09T03:06:24.147Z,4.05
2023-05-09T03:09:25.782Z,3.45
2023-05-09T03:12:27.417Z,3.75
2023-05-09T03:15:29.316Z,3.08
2023-05-09T03:18:32.309Z,3.38
2023-05-09T03:21:34.259Z,3.50
2023-05-09T03:24:35.930Z,3.05
2023-05-09T03:27:37.523Z,3.60
2023-05-09T03:30:39.176Z,3.20
2023-05-09T03:33:42.425Z,2.88
2023-05-09T03:36:44.366Z,3.92
2023-05-09T03:39:46.017Z,3.38
2023-05-09T03:42:47.953Z,3.60
2023-05-09T03:45:49.605Z,3.63
2023-05-09T03:48:52.643Z,3.53
2023-05-09T03:51:54.372Z,3.72
2023-05-09T03:54:56.444Z,3.50
2023-05-09T03:57:58.133Z,3.38
2023-05-09T04:01:00.028Z,4.03
2023-05-09T04:04:04.161Z,3.10
2023-05-09T04:07:05.850Z,3.42
2023-05-09T04:10:08.792Z,3.40
2023-05-09T04:13:10.493Z,3.28
2023-05-09T04:16:12.381Z,3.50
2023-05-09T04:19:15.293Z,3.10
2023-05-09T04:22:16.933Z,3.10
2023-05-09T04:25:18.603Z,3.60
2023-05-09T04:28:20.269Z,3.45
2023-05-09T04:31:22.065Z,3.00
2023-05-09T04:34:25.208Z,3.05
2023-05-09T04:37:26.798Z,3.42
2023-05-09T04:40:28.532Z,3.17
2023-05-09T04:43:30.222Z,3.33
2023-05-09T04:46:32.375Z,3.00
2023-05-09T04:49:35.727Z,2.88
2023-05-09T04:52:37.603Z,3.53
2023-05-09T04:55:39.261Z,3.00
2023-05-09T04:58:40.928Z,3.05
2023-05-09T05:01:43.448Z,2.72
2023-05-09T05:04:46.581Z,2.97
2023-05-09T05:07:48.488Z,3.13
2023-05-09T05:10:50.351Z,3.35
2023-05-09T05:13:52.242Z,3.03
2023-05-09T05:16:54.112Z,2.70
2023-05-09T05:19:57.261Z,3.45
2023-05-09T05:22:59.214Z,3.15
2023-05-09T05:26:00.804Z,3.47
2023-05-09T05:29:02.549Z,3.50
2023-05-09T05:32:04.296Z,3.38
2023-05-09T05:35:08.079Z,3.45
2023-05-09T05:38:09.785Z,3.20
2023-05-09T05:41:11.456Z,3.47
2023-05-09T05:44:13.329Z,2.90
2023-05-09T05:47:15.323Z,2.80
2023-05-09T05:50:18.854Z,2.72
2023-05-09T05:53:20.528Z,2.60
2023-05-09T05:56:22.184Z,3.00
2023-05-09T05:59:23.795Z,3.00
2023-05-09T06:02:25.628Z,2.50
2023-05-09T06:05:28.737Z,2.13
2023-05-09T06:08:31.237Z,2.55
2023-05-09T06:11:33.108Z,2.30
2023-05-09T06:14:34.764Z,2.15
2023-05-09T06:17:36.645Z,2.30
2023-05-09T06:20:40.154Z,2.33
2023-05-09T06:23:57.159Z,2.22
2023-05-09T06:27:04.462Z,2.30
2023-05-09T06:30:23.794Z,2.58
2023-05-09T06:33:26.893Z,2.10
2023-05-09T06:36:31.420Z,2.63
2023-05-09T06:39:33.957Z,2.20
2023-05-09T06:42:35.611Z,2.17
2023-05-09T06:45:37.610Z,2.95
2023-05-09T06:48:39.853Z,2.70
2023-05-09T06:51:43.069Z,2.30
2023-05-09T06:54:44.768Z,2.55
2023-05-09T06:57:46.757Z,2.58
2023-05-09T07:00:48.630Z,2.30
2023-05-09T07:03:51.052Z,2.17
2023-05-09T07:06:55.389Z,2.13
2023-05-09T07:10:07.255Z,2.15
2023-05-09T07:13:12.696Z,2.38
2023-05-09T07:16:14.439Z,2.50
2023-05-09T07:19:16.509Z,2.40
2023-05-09T07:22:19.649Z,3.25
2023-05-09T07:25:21.626Z,2.20
2023-05-09T07:28:23.326Z,2.35
2023-05-09T07:31:25.073Z,2.47
2023-05-09T07:34:27.252Z,2.20
2023-05-09T07:37:30.336Z,2.35
2023-05-09T07:40:32.034Z,2.20
2023-05-09T07:43:33.671Z,1.98
2023-05-09T07:46:35.464Z,1.95
2023-05-09T07:49:37.519Z,2.15
2023-05-09T07:52:40.571Z,1.92
2023-05-09T07:55:45.573Z,1.98
2023-05-09T07:58:47.268Z,1.70
2023-05-09T08:01:49.059Z,2.00
2023-05-09T08:04:50.773Z,2.05
2023-05-09T08:07:53.700Z,2.08
2023-05-09T08:10:56.348Z,2.00
2023-05-09T08:13:58.254Z,2.08
2023-05-09T08:17:00.181Z,2.17
2023-05-09T08:20:02.576Z,2.38
2023-05-09T08:23:05.634Z,2.20
2023-05-09T08:26:08.368Z,2.00
2023-05-09T08:29:10.584Z,2.05
2023-05-09T08:32:12.234Z,2.00
2023-05-09T08:35:14.862Z,1.90
2023-05-09T08:38:18.589Z,2.17
2023-05-09T08:41:24.935Z,1.75
2023-05-09T08:44:28.721Z,2.42
2023-05-09T08:47:30.400Z,2.17
2023-05-09T08:50:32.446Z,2.53
2023-05-09T08:53:36.140Z,1.90
2023-05-09T08:56:38.267Z,1.73
2023-05-09T08:59:42.588Z,2.20
2023-05-09T09:02:44.617Z,2.17
2023-05-09T09:05:48.079Z,2.00
2023-05-09T09:11:53.250Z,1.75
2023-05-09T09:14:56.562Z,2.25
2023-05-09T09:18:00.225Z,2.58
2023-05-09T09:21:06.129Z,2.50
2023-05-09T09:24:12.696Z,2.30
2023-05-09T09:27:14.446Z,2.20
2023-05-09T09:30:17.359Z,2.50
2023-05-09T09:33:20.453Z,2.22
2023-05-09T09:36:28.729Z,2.40
2023-05-09T09:39:31.785Z,2.17
2023-05-09T09:42:41.725Z,1.88
2023-05-09T09:45:43.528Z,2.20
2023-05-09T09:48:46.741Z,1.90
2023-05-09T09:51:51.972Z,2.13
2023-05-09T09:54:56.588Z,1.75
2023-05-09T09:57:58.595Z,1.90
2023-05-09T10:01:07.229Z,2.20
2023-05-09T10:04:09.175Z,1.80
2023-05-09T10:07:13.737Z,1.67
2023-05-09T10:10:18.058Z,2.00
2023-05-09T10:13:21.105Z,2.13
2023-05-09T10:16:35.618Z,1.83
2023-05-09T10:19:46.101Z,1.90
2023-05-09T10:22:49.242Z,1.83
2023-05-09T10:26:04.196Z,2.00
2023-05-09T10:29:10.479Z,1.90
2023-05-09T10:32:16.001Z,1.70
2023-05-09T10:35:20.282Z,2.53
2023-05-09T10:38:22.627Z,2.00
2023-05-09T10:41:25.995Z,2.00
2023-05-09T10:47:30.487Z,1.80
2023-05-09T10:50:32.340Z,1.90
2023-05-09T10:53:44.770Z,1.90
2023-05-09T10:56:47.890Z,1.70
2023-05-09T10:59:51.599Z,1.80
2023-05-09T11:03:06.618Z,1.73
2023-05-09T11:06:08.659Z,1.55
2023-05-09T11:09:23.748Z,1.80
2023-05-09T11:12:30.196Z,1.70
2023-05-09T11:15:31.996Z,1.65
2023-05-09T11:18:33.837Z,1.80
2023-05-09T11:21:36.788Z,1.83
2023-05-09T11:24:39.886Z,1.70
2023-05-09T11:27:45.448Z,1.92
2023-05-09T11:30:47.145Z,2.08
2023-05-09T11:33:51.029Z,1.92
2023-05-09T11:37:09.028Z,2.00
2023-05-09T11:40:14.829Z,1.95
2023-05-09T11:43:18.801Z,1.90
2023-05-09T11:46:21.129Z,1.70
2023-05-09T11:49:23.252Z,1.95
2023-05-09T11:52:25.512Z,1.77
2023-05-09T11:55:27.873Z,1.60
2023-05-09T11:58:31.028Z,2.45
2023-05-09T12:01:32.731Z,1.83
2023-05-09T12:04:35.696Z,1.90
2023-05-09T12:07:37.984Z,1.80
2023-05-09T12:10:39.802Z,1.95
2023-05-09T12:13:46.757Z,1.67
2023-05-09T12:16:48.617Z,1.77
2023-05-09T12:19:52.242Z,1.80
2023-05-09T12:22:54.300Z,1.77
2023-05-09T12:25:57.116Z,1.50
2023-05-09T12:29:00.509Z,1.80
2023-05-09T12:32:02.673Z,1.73
2023-05-09T12:35:04.929Z,1.65
2023-05-09T12:38:06.646Z,1.55
2023-05-09T12:41:18.794Z,1.70
2023-05-09T12:44:33.260Z,1.50
2023-05-09T12:47:35.069Z,1.50
2023-05-09T12:50:37.421Z,1.77
2023-05-09T12:53:40.607Z,1.70
2023-05-09T12:56:42.847Z,1.85
2023-05-09T12:59:46.095Z,1.90
2023-05-09T13:06:00.463Z,1.50
2023-05-09T13:09:04.157Z,1.30
2023-05-09T13:12:08.838Z,1.70
2023-05-09T13:15:12.557Z,1.98
2023-05-09T13:18:14.455Z,1.60
2023-05-09T13:21:16.359Z,1.67
2023-05-09T13:24:18.013Z,1.58
2023-05-09T13:27:20.327Z,1.88
2023-05-09T13:30:23.488Z,1.38
2023-05-09T13:33:26.604Z,1.50
2023-05-09T13:36:28.775Z,1.90
2023-05-09T13:39:30.617Z,1.60
2023-05-09T13:42:33.942Z,1.70
2023-05-09T13:45:37.034Z,1.45
2023-05-09T13:48:38.839Z,1.60
2023-05-09T13:51:40.762Z,1.48
2023-05-09T13:54:42.905Z,1.65
2023-05-09T13:57:44.689Z,1.75
2023-05-09T14:00:48.082Z,1.48
2023-05-09T14:03:50.008Z,1.50
2023-05-09T14:06:51.920Z,1.92
2023-05-09T14:09:58.760Z,1.60
2023-05-09T14:13:10.180Z,1.50
2023-05-09T14:16:13.559Z,1.70
2023-05-09T14:19:16.056Z,1.48
2023-05-09T14:22:17.788Z,1.25
2023-05-09T14:25:19.834Z,1.33
2023-05-09T14:28:21.656Z,1.75
2023-05-09T14:31:24.771Z,1.33
2023-05-09T14:34:26.502Z,1.40
2023-05-09T14:37:28.267Z,1.40
2023-05-09T14:40:30.286Z,1.42
2023-05-09T14:43:32.119Z,1.40
2023-05-09T14:46:35.189Z,1.35
2023-05-09T14:49:37.097Z,1.48
2023-05-09T14:52:38.739Z,1.40
2023-05-09T14:55:40.526Z,1.60
2023-05-09T14:58:42.165Z,1.40
2023-05-09T15:01:45.512Z,1.60
2023-05-09T15:04:47.365Z,1.33
2023-05-09T15:07:49.022Z,1.45
2023-05-09T15:10:50.809Z,1.60
2023-05-09T15:13:53.449Z,1.40
2023-05-09T15:16:57.473Z,1.85
2023-05-09T15:19:59.734Z,1.50
2023-05-09T15:23:01.589Z,1.70
2023-05-09T15:26:03.620Z,1.60
2023-05-09T15:29:05.277Z,1.60
2023-05-09T15:32:08.344Z,1.35
2023-05-09T15:35:10.603Z,1.50
2023-05-09T15:38:12.489Z,1.50
2023-05-09T15:41:14.578Z,1.70
2023-05-09T15:44:16.401Z,1.40
2023-05-09T15:47:20.298Z,1.63
2023-05-09T15:50:22.223Z,1.30
2023-05-09T15:53:24.180Z,1.77
2023-05-09T15:56:25.845Z,1.40
2023-05-09T15:59:28.045Z,1.70
2023-05-09T16:02:31.526Z,1.90
2023-05-09T16:05:33.293Z,1.58
2023-05-09T16:08:35.195Z,1.80
2023-05-09T16:11:37.158Z,1.30
2023-05-09T16:14:39.188Z,1.75
2023-05-09T16:17:43.053Z,1.63
2023-05-09T16:20:44.789Z,1.70
2023-05-09T16:23:46.679Z,1.70
2023-05-09T16:26:48.357Z,1.60
2023-05-09T16:29:50.032Z,1.92
2023-05-09T16:32:53.223Z,2.20
2023-05-09T16:35:55.085Z,2.20
2023-05-09T16:38:57.028Z,1.40
2023-05-09T16:41:59.769Z,1.60
2023-05-09T16:45:01.419Z,1.95
2023-05-09T16:48:05.302Z,2.22
2023-05-09T16:51:07.286Z,1.88
2023-05-09T16:54:09.285Z,1.50
2023-05-09T16:57:11.210Z,2.25
2023-05-09T17:00:13.843Z,2.42
2023-05-09T17:03:17.631Z,2.38
2023-05-09T17:06:19.496Z,1.80
2023-05-09T17:09:23.698Z,1.90
2023-05-09T17:12:25.854Z,2.10
2023-05-09T17:15:28.057Z,1.70
2023-05-09T17:18:37.547Z,1.80
2023-05-09T17:21:40.384Z,2.10
2023-05-09T17:24:42.432Z,2.38
2023-05-09T17:27:44.119Z,2.17
2023-05-09T17:30:45.966Z,2.33
2023-05-09T17:33:49.144Z,2.40
2023-05-09T17:36:51.240Z,2.50
2023-05-09T17:39:53.384Z,2.65
2023-05-09T17:42:55.154Z,3.80
2023-05-09T17:45:57.797Z,3.00
2023-05-09T17:49:01.540Z,2.65
2023-05-09T17:52:03.495Z,2.58
2023-05-09T17:55:06.668Z,3.25
2023-05-09T17:58:08.431Z,2.53
2023-05-09T18:01:10.411Z,2.70
2023-05-09T18:04:14.870Z,3.45
2023-05-09T18:07:16.639Z,2.97
2023-05-09T18:10:18.541Z,3.13
2023-05-09T18:13:20.756Z,2.92
2023-05-09T18:16:25.621Z,2.67
2023-05-09T18:19:28.713Z,2.55
2023-05-09T18:22:30.580Z,2.70
2023-05-09T18:25:32.780Z,2.30
2023-05-09T18:28:35.244Z,2.45
2023-05-09T18:31:36.903Z,2.60
2023-05-09T18:34:39.992Z,2.65
2023-05-09T18:37:45.381Z,2.28
2023-05-09T18:40:47.461Z,2.22
2023-05-09T18:43:49.159Z,2.15
2023-05-09T18:46:51.039Z,2.10
2023-05-09T18:49:54.232Z,2.35
2023-05-09T18:52:58.682Z,2.50
2023-05-09T18:56:01.396Z,2.70
2023-05-09T18:59:03.128Z,2.60
2023-05-09T19:02:05.231Z,2.53
2023-05-09T19:05:09.449Z,2.40
2023-05-09T19:08:11.530Z,2.50
2023-05-09T19:11:13.491Z,2.80
2023-05-09T19:14:15.871Z,2.50
2023-05-09T19:17:18.861Z,2.80
2023-05-09T19:20:22.425Z,3.00
2023-05-09T19:26:43.369Z,3.00
2023-05-09T19:29:47.509Z,2.90
2023-05-09T19:32:53.183Z,3.33
2023-05-09T19:35:57.232Z,2.97
2023-05-09T19:38:59.853Z,3.05
2023-05-09T19:42:02.322Z,2.75
2023-05-09T19:45:08.102Z,2.92
2023-05-09T19:48:10.591Z,2.72
2023-05-09T19:51:14.482Z,2.55
2023-05-09T19:54:17.746Z,2.70
2023-05-09T19:57:19.745Z,2.85
2023-05-09T20:00:21.397Z,2.63
2023-05-09T20:03:23.387Z,2.65
2023-05-09T20:09:46.621Z,2.60
2023-05-09T20:12:49.004Z,2.85
2023-05-09T20:15:52.002Z,2.72
2023-05-09T20:18:54.761Z,3.08
2023-05-09T20:21:58.912Z,2.78
2023-05-09T20:25:01.514Z,2.25
2023-05-09T20:28:03.991Z,2.20
2023-05-09T20:31:06.556Z,2.40
2023-05-09T20:34:11.620Z,2.28
2023-05-09T20:37:15.605Z,2.60
2023-05-09T20:40:18.549Z,2.55
2023-05-09T20:43:22.008Z,2.63
2023-05-09T20:46:24.565Z,2.47
2023-05-09T20:49:26.747Z,2.55
2023-05-09T20:52:29.967Z,2.30
2023-05-09T20:55:31.604Z,2.47
2023-05-09T20:58:34.264Z,2.20
2023-05-09T21:01:36.109Z,2.38
2023-05-09T21:04:37.774Z,2.38
2023-05-09T21:07:40.909Z,2.38
2023-05-09T21:10:42.507Z,2.28
2023-05-09T21:13:44.394Z,2.17
2023-05-09T21:16:46.238Z,2.78
2023-05-09T21:19:47.858Z,2.70
2023-05-09T21:22:50.816Z,2.85
2023-05-09T21:25:52.422Z,3.03
2023-05-09T21:28:54.387Z,3.33
2023-05-09T21:31:55.968Z,3.28
2023-05-09T21:34:57.604Z,2.47
2023-05-09T21:38:00.824Z,2.40
2023-05-09T21:41:03.053Z,2.30
2023-05-09T21:44:05.553Z,2.80
2023-05-09T21:47:07.472Z,2.50
2023-05-09T21:50:09.857Z,2.50
2023-05-09T21:53:12.980Z,2.35
2023-05-09T21:56:14.856Z,2.28
2023-05-09T21:59:16.469Z,2.45
2023-05-09T22:02:18.292Z,2.45
2023-05-09T22:05:20.007Z,2.28
2023-05-09T22:08:23.017Z,2.67
2023-05-09T22:11:24.633Z,2.13
2023-05-09T22:14:26.262Z,2.42
2023-05-09T22:17:27.915Z,1.98
2023-05-09T22:20:29.525Z,2.35
2023-05-09T22:23:32.513Z,2.50
2023-05-09T22:26:34.357Z,2.97
2023-05-09T22:29:36.015Z,3.00
2023-05-09T22:32:37.747Z,2.88
2023-05-09T22:35:39.528Z,2.47
2023-05-09T22:38:42.848Z,2.80
2023-05-09T22:41:44.735Z,2.40
2023-05-09T22:44:46.292Z,2.60
2023-05-09T22:47:47.990Z,2.55
2023-05-09T22:50:49.751Z,2.60
2023-05-09T22:53:52.796Z,2.60
2023-05-09T22:56:54.658Z,2.60
2023-05-09T22:59:56.565Z,2.92
2023-05-09T23:02:58.529Z,2.60
2023-05-09T23:06:01.541Z,2.75
2023-05-09T23:09:04.604Z,2.83
2023-05-09T23:12:07.923Z,3.03
2023-05-09T23:15:10.361Z,2.47
2023-05-09T23:18:12.027Z,2.70
2023-05-09T23:21:13.660Z,2.70
2023-05-09T23:24:16.711Z,3.10
2023-05-09T23:27:18.610Z,2.83
2023-05-09T23:30:20.593Z,2.63
2023-05-09T23:33:22.258Z,2.80
2023-05-09T23:36:23.919Z,2.85
2023-05-09T23:39:27.063Z,2.47
2023-05-09T23:42:28.980Z,2.90
2023-05-09T23:45:30.598Z,3.22
2023-05-09T23:48:32.526Z,2.83
2023-05-09T23:51:34.429Z,2.95
2023-05-09T23:54:37.624Z,3.03
2023-05-09T23:57:39.486Z,2.88
